createdAt,value
2018-04-10T00:00:04.740Z,949.36
2018-04-10T00:15:04.737Z,949.2
2018-04-10T00:30:04.579Z,949.2
2018-04-10T00:45:04.909Z,949.64
2018-04-10T01:00:05.440Z,950.18
2018-04-10T01:15:05.143Z,950.4
2018-04-10T01:30:04.941Z,950.86
2018-04-10T01:45:04.980Z,951.08
2018-04-10T02:00:05.436Z,951.35
2018-04-10T02:15:04.925Z,951.38
2018-04-10T02:30:04.737Z,951.27
2018-04-10T02:45:05.065Z,951.54
2018-04-10T03:00:05.217Z,951.05
2018-04-10T03:15:05.308Z,951.08
2018-04-10T03:30:04.779Z,951.49
2018-04-10T03:45:04.736Z,952.03
2018-04-10T04:00:05.676Z,952.3
2018-04-10T04:15:04.784Z,952.74
2018-04-10T04:30:04.889Z,945.68
2018-04-10T04:45:04.780Z,945.82
2018-04-10T05:00:05.783Z,945.74
2018-04-10T05:15:04.937Z,945.95
2018-04-10T05:30:05.098Z,945.9
2018-04-10T05:45:05.085Z,952.44
2018-04-10T06:00:05.048Z,951.32
2018-04-10T06:15:04.454Z,949.85
2018-04-10T06:30:05.053Z,948.19
2018-04-10T06:45:04.438Z,946.13
2018-04-10T07:00:04.849Z,951.42
2018-04-10T07:15:05.245Z,949.47
2018-04-10T07:30:04.379Z,946.26
2018-04-10T07:45:04.814Z,949.39
2018-04-10T08:00:05.346Z,946.9
2018-04-10T08:15:05.226Z,948.62
2018-04-10T08:30:04.443Z,945.64
2018-04-10T08:45:04.572Z,951.71
2018-04-10T09:00:04.537Z,950.63
2018-04-10T09:15:05.030Z,949.92
2018-04-10T09:30:04.663Z,945.08
2018-04-10T09:45:04.544Z,948.82
2018-04-10T10:00:05.101Z,945.66
2018-04-10T10:15:04.551Z,948.31
2018-04-10T10:30:04.654Z,950.19
2018-04-10T10:45:04.488Z,944.42
2018-04-10T11:00:04.895Z,944.61
2018-04-10T11:15:04.783Z,945
2018-04-10T11:30:04.494Z,945.68
2018-04-10T11:45:04.408Z,945.41
2018-04-10T12:00:04.832Z,946.48
2018-04-10T12:15:04.745Z,947.05
2018-04-10T12:30:04.883Z,950.15
2018-04-10T12:45:04.860Z,951.94
2018-04-10T13:00:04.404Z,952.71
2018-04-10T13:15:04.813Z,946.89
2018-04-10T13:30:04.408Z,947.98
2018-04-10T13:45:04.818Z,948.93
2018-04-10T14:00:05.263Z,949.26
2018-04-10T14:15:05.217Z,949.47
2018-04-10T14:30:04.813Z,949.72
2018-04-10T14:45:04.706Z,949.58
2018-04-10T15:00:04.612Z,951
2018-04-10T15:15:04.529Z,951.76
2018-04-10T15:30:04.616Z,952
2018-04-10T15:45:04.547Z,951.59
2018-04-10T16:00:05.133Z,951.87
2018-04-10T16:15:04.691Z,952.41
2018-04-10T16:30:05.379Z,952.74
2018-04-10T16:45:06.101Z,952.85
2018-04-10T17:00:05.554Z,953.36
2018-04-10T17:15:04.451Z,953.31
2018-04-10T17:30:05.103Z,952.98
2018-04-10T17:45:05.228Z,953.31
2018-04-10T18:00:05.315Z,953.5
2018-04-10T18:15:04.711Z,954.32
2018-04-10T18:30:05.190Z,954.53
2018-04-10T18:45:04.995Z,955.24
2018-04-10T19:00:04.740Z,948.41
2018-04-10T19:15:05.193Z,949.35
2018-04-10T19:30:04.946Z,949.73
2018-04-10T19:45:04.998Z,950.24
2018-04-10T20:00:04.924Z,950.54
2018-04-10T20:15:04.434Z,950.92
2018-04-10T20:30:04.744Z,951.32
2018-04-10T20:45:05.443Z,951.67
2018-04-10T21:00:05.188Z,951.94
2018-04-10T21:15:05.270Z,952.32
2018-04-10T21:30:04.624Z,952.75
2018-04-10T21:45:05.164Z,952.94
2018-04-10T22:00:05.331Z,953.05
2018-04-10T22:15:05.376Z,953.51
2018-04-10T22:30:05.048Z,953.67
2018-04-10T22:45:04.473Z,953.88
2018-04-10T23:00:04.463Z,953.99
2018-04-10T23:15:04.873Z,954.32
2018-04-10T23:30:05.000Z,954.48
2018-04-10T23:45:04.906Z,954.86
